Time;durP1;ratioP1;P1;durP2;ratioP2;P2;SDS_P1;SDS_P2;PMS_P1;PMS_P2;Temp;Humidity;BMP_temperature;BMP_pressure;BME280_temperature;BME280_humidity;BME280_pressure;Samples;Min_cycle;Max_cycle;Signal;HPM_P1;HPM_P2
2022/06/18 00:02:12;;;;;;;138.73;128.07;;;22.60;61.10;;;;;;4994758;28;20089;-72
2022/06/18 00:04:40;;;;;;;144.57;133.37;;;22.60;61.00;;;;;;4993265;28;20146;-72
2022/06/18 00:07:11;;;;;;;140.77;129.77;;;22.60;60.90;;;;;;5012850;28;20058;-73
2022/06/18 00:09:41;;;;;;;140.32;129.38;;;22.60;61.40;;;;;;5014296;28;20051;-72
2022/06/18 00:15:01;;;;;;;137.65;127.05;;;22.60;61.60;;;;;;5029311;28;20125;-72
2022/06/18 00:17:29;;;;;;;138.57;127.97;;;22.50;61.70;;;;;;5012764;28;20150;-73
2022/06/18 00:19:56;;;;;;;139.38;128.63;;;22.50;62.00;;;;;;5012734;28;20987;-73
2022/06/18 00:22:24;;;;;;;139.68;128.65;;;22.50;62.20;;;;;;5014266;28;20149;-72
2022/06/18 00:24:52;;;;;;;139.02;128.23;;;22.40;62.20;;;;;;5013073;28;20050;-72
2022/06/18 00:27:20;;;;;;;139.88;128.98;;;22.40;62.30;;;;;;5012799;28;20206;-72
2022/06/18 00:29:49;;;;;;;139.65;128.82;;;22.40;62.50;;;;;;5013093;28;20046;-72
2022/06/18 00:32:17;;;;;;;139.73;128.93;;;22.40;62.60;;;;;;5012846;28;20137;-73
2022/06/18 00:34:45;;;;;;;138.90;127.95;;;22.30;62.80;;;;;;5012566;28;20501;-72
2022/06/18 00:37:16;;;;;;;137.07;126.28;;;22.30;62.90;;;;;;5013443;28;20681;-73
2022/06/18 00:39:44;;;;;;;137.65;127.03;;;22.30;63.10;;;;;;5011249;28;20047;-72
2022/06/18 00:42:20;;;;;;;138.63;127.93;;;22.30;63.40;;;;;;5013906;28;20046;-72
2022/06/18 00:44:53;;;;;;;138.10;127.57;;;22.30;63.70;;;;;;5028590;28;20058;-72
2022/06/18 00:47:27;;;;;;;135.43;124.72;;;22.20;63.80;;;;;;5012095;28;20060;-73
2022/06/18 00:50:00;;;;;;;137.88;127.05;;;22.20;63.80;;;;;;5012663;28;20117;-73
2022/06/18 00:52:34;;;;;;;138.45;127.75;;;22.20;63.90;;;;;;5013719;28;20057;-73
2022/06/18 00:55:07;;;;;;;139.43;128.63;;;22.10;63.80;;;;;;5012160;28;20830;-73
2022/06/18 00:57:40;;;;;;;139.57;128.70;;;22.00;64.20;;;;;;5028443;28;20050;-72
2022/06/18 01:00:14;;;;;;;138.77;127.90;;;22.00;64.30;;;;;;5028628;28;20274;-72
2022/06/18 01:02:46;;;;;;;139.43;128.52;;;21.90;64.50;;;;;;5011804;28;20057;-72
2022/06/18 01:05:21;;;;;;;140.57;129.45;;;21.90;64.60;;;;;;5012410;28;20097;-73
2022/06/18 01:07:53;;;;;;;139.15;128.35;;;21.90;64.60;;;;;;5012526;28;20149;-73
2022/06/18 01:10:25;;;;;;;145.80;134.30;;;21.80;64.90;;;;;;5009047;28;20537;-73
2022/06/18 01:12:52;;;;;;;139.45;128.55;;;21.80;65.00;;;;;;4992505;28;20054;-73
2022/06/18 01:15:21;;;;;;;140.35;129.43;;;21.80;65.10;;;;;;4976420;28;20039;-72
2022/06/18 01:17:51;;;;;;;141.25;130.15;;;21.80;65.30;;;;;;4992345;28;20046;-73
2022/06/18 01:20:23;;;;;;;139.63;128.63;;;21.70;65.40;;;;;;4992118;28;20077;-72
2022/06/18 01:22:56;;;;;;;140.07;129.10;;;21.70;65.60;;;;;;4976171;28;20421;-72
2022/06/18 01:25:26;;;;;;;141.55;130.43;;;21.70;65.60;;;;;;4975730;28;20130;-72
2022/06/18 01:27:54;;;;;;;141.40;130.10;;;21.60;66.10;;;;;;4992662;28;20046;-72
2022/06/18 01:30:32;;;;;;;139.35;128.20;;;21.60;66.30;;;;;;5011847;28;20868;-73
2022/06/18 01:33:00;;;;;;;141.55;130.43;;;21.50;66.30;;;;;;5028052;28;20375;-73
2022/06/18 01:35:30;;;;;;;140.10;129.05;;;21.50;66.70;;;;;;5011776;28;20050;-72
2022/06/18 01:38:05;;;;;;;141.07;130.13;;;21.50;66.90;;;;;;5011412;28;20046;-72
2022/06/18 01:40:40;;;;;;;140.55;129.13;;;21.50;67.00;;;;;;5011518;28;20049;-73
2022/06/18 01:43:13;;;;;;;141.68;130.38;;;21.50;67.20;;;;;;5010952;28;20050;-73
2022/06/18 01:45:42;;;;;;;140.73;129.63;;;21.40;67.40;;;;;;4991862;28;20054;-73
2022/06/18 01:48:17;;;;;;;140.45;129.30;;;21.30;67.70;;;;;;4991636;28;20065;-72
2022/06/18 01:50:49;;;;;;;139.10;128.13;;;21.40;68.00;;;;;;4992142;28;20418;-72
2022/06/18 01:53:22;;;;;;;138.52;127.72;;;21.30;68.30;;;;;;4992334;28;20067;-72
2022/06/18 01:55:55;;;;;;;140.25;129.35;;;21.30;68.50;;;;;;4992054;28;20501;-73
2022/06/18 01:58:26;;;;;;;140.68;129.55;;;21.30;68.70;;;;;;4992704;28;20085;-72
2022/06/18 02:00:59;;;;;;;140.05;128.95;;;21.30;68.80;;;;;;4992434;28;20118;-72
2022/06/18 02:03:26;;;;;;;140.60;129.38;;;21.30;68.90;;;;;;4975320;28;20138;-72
2022/06/18 02:05:53;;;;;;;140.93;129.52;;;21.30;69.10;;;;;;4991940;28;20054;-72
2022/06/18 02:08:21;;;;;;;140.70;129.30;;;21.20;69.30;;;;;;4974719;28;20110;-72
2022/06/18 02:10:54;;;;;;;140.27;129.27;;;21.20;69.60;;;;;;4975119;28;20102;-72
2022/06/18 02:13:23;;;;;;;141.70;130.50;;;21.20;69.70;;;;;;4991480;28;20050;-72
2022/06/18 02:15:56;;;;;;;141.53;130.40;;;21.20;69.90;;;;;;4991706;28;20531;-72
2022/06/18 02:18:25;;;;;;;142.70;130.98;;;21.20;70.00;;;;;;5009072;28;20341;-72
2022/06/18 02:20:54;;;;;;;140.32;129.10;;;21.20;70.30;;;;;;5011579;28;20513;-72
2022/06/18 02:23:23;;;;;;;142.43;130.82;;;21.20;70.50;;;;;;5015680;28;20133;-73
2022/06/18 02:25:52;;;;;;;141.30;130.10;;;21.20;70.70;;;;;;4998154;28;20058;-72
2022/06/18 02:28:23;;;;;;;142.23;130.80;;;21.20;70.90;;;;;;4997485;28;20046;-73
2022/06/18 02:30:53;;;;;;;140.80;129.38;;;21.10;71.00;;;;;;5014402;28;20061;-72
2022/06/18 02:33:30;;;;;;;140.18;129.10;;;21.10;71.20;;;;;;5015588;28;20101;-72
2022/06/18 02:36:06;;;;;;;137.35;126.07;;;21.10;71.30;;;;;;4998278;28;20138;-72
2022/06/18 02:38:33;;;;;;;139.85;128.60;;;21.10;71.60;;;;;;5015367;28;20156;-73
2022/06/18 02:41:02;;;;;;;140.38;129.07;;;21.10;72.00;;;;;;4997540;28;20055;-72
2022/06/18 02:43:29;;;;;;;140.10;128.75;;;21.10;72.40;;;;;;5014149;28;20165;-72
2022/06/18 02:45:57;;;;;;;140.93;129.73;;;21.00;72.60;;;;;;5014117;28;20157;-73
2022/06/18 02:48:27;;;;;;;140.70;129.63;;;21.00;73.00;;;;;;5015072;28;20054;-73
2022/06/18 02:50:56;;;;;;;142.68;131.32;;;21.00;73.40;;;;;;4998470;28;20051;-72
2022/06/18 02:53:27;;;;;;;140.85;129.70;;;20.90;73.70;;;;;;4978278;28;20085;-72
2022/06/18 02:55:56;;;;;;;140.57;129.10;;;20.90;73.90;;;;;;4994145;28;20517;-73
2022/06/18 02:58:27;;;;;;;141.43;129.73;;;20.90;74.30;;;;;;4977938;28;20046;-72
2022/06/18 03:00:56;;;;;;;140.27;129.00;;;20.80;74.50;;;;;;4978083;28;20051;-72
2022/06/18 03:03:27;;;;;;;140.18;128.98;;;20.80;74.90;;;;;;4977839;28;20094;-72
2022/06/18 03:05:55;;;;;;;141.05;129.43;;;20.80;75.10;;;;;;4978016;28;20055;-72
2022/06/18 03:08:23;;;;;;;141.07;129.60;;;20.70;75.50;;;;;;4977447;28;20130;-72
2022/06/18 03:13:40;;;;;;;141.45;130.13;;;20.70;76.40;;;;;;4994168;28;20109;-73
2022/06/18 03:16:09;;;;;;;142.20;130.77;;;20.60;76.50;;;;;;4994324;28;20091;-73
2022/06/18 03:18:39;;;;;;;141.88;130.43;;;20.60;77.10;;;;;;4977568;28;20051;-72
2022/06/18 03:21:15;;;;;;;143.90;132.18;;;20.60;77.40;;;;;;4993843;28;20574;-72
2022/06/18 03:23:42;;;;;;;141.43;129.65;;;20.60;77.80;;;;;;4992776;28;20051;-72
2022/06/18 03:26:10;;;;;;;142.40;130.80;;;20.50;78.00;;;;;;4977884;28;20074;-72
2022/06/18 03:28:40;;;;;;;144.82;133.23;;;20.50;78.30;;;;;;4993769;28;20055;-72
2022/06/18 03:31:08;;;;;;;142.85;131.25;;;20.50;78.70;;;;;;4994288;28;20055;-72
2022/06/18 03:33:38;;;;;;;144.98;132.93;;;20.50;79.10;;;;;;4996237;28;20051;-73
2022/06/18 03:36:08;;;;;;;143.27;131.57;;;20.50;79.40;;;;;;4993691;28;20046;-72
2022/06/18 03:38:36;;;;;;;144.13;132.38;;;20.40;79.70;;;;;;4993309;28;20050;-72
2022/06/18 03:41:04;;;;;;;145.77;133.98;;;20.40;80.00;;;;;;4993640;28;20133;-72
2022/06/18 03:43:32;;;;;;;145.30;133.40;;;20.40;80.50;;;;;;4977297;28;20106;-72
2022/06/18 03:46:05;;;;;;;144.80;133.10;;;20.40;81.00;;;;;;4977436;28;20050;-72
2022/06/18 03:48:40;;;;;;;143.97;132.17;;;20.30;81.50;;;;;;4977042;28;20566;-72
2022/06/18 03:51:07;;;;;;;144.93;132.98;;;20.20;81.80;;;;;;4993755;28;20070;-72
2022/06/18 03:53:36;;;;;;;145.00;133.20;;;20.20;82.40;;;;;;4993636;28;20137;-72
2022/06/18 03:56:04;;;;;;;143.07;130.70;;;20.20;82.90;;;;;;4993297;28;20125;-72
2022/06/18 03:58:37;;;;;;;144.23;131.88;;;20.20;83.40;;;;;;4976327;28;20057;-72
2022/06/18 04:01:06;;;;;;;144.95;133.00;;;20.20;84.20;;;;;;4977177;28;20054;-72
2022/06/18 04:03:35;;;;;;;145.48;133.35;;;20.10;84.40;;;;;;4976985;28;20042;-72
2022/06/18 04:06:03;;;;;;;144.63;132.63;;;20.10;85.10;;;;;;4977201;28;20046;-72
2022/06/18 04:08:31;;;;;;;143.63;131.63;;;20.10;85.40;;;;;;4993323;28;20051;-72
2022/06/18 04:11:01;;;;;;;143.38;131.32;;;20.00;85.90;;;;;;4993531;28;20122;-72
2022/06/18 04:13:29;;;;;;;143.88;131.68;;;20.00;86.30;;;;;;4977368;28;20043;-72
2022/06/18 04:16:33;;;;;;;142.35;130.07;;;20.00;86.80;;;;;;4993609;28;20073;-72
2022/06/18 04:19:08;;;;;;;144.32;132.18;;;20.00;87.20;;;;;;4993153;28;20129;-72
2022/06/18 04:21:35;;;;;;;146.07;133.80;;;19.90;87.80;;;;;;4976882;28;20505;-72
2022/06/18 04:24:02;;;;;;;144.98;133.00;;;19.90;88.20;;;;;;4993534;28;20054;-72
2022/06/18 04:26:30;;;;;;;146.48;133.50;;;19.90;88.90;;;;;;4977381;28;20148;-72
2022/06/18 04:28:59;;;;;;;146.13;133.52;;;19.90;88.90;;;;;;4975891;28;20067;-72
2022/06/18 04:31:26;;;;;;;145.40;133.05;;;19.90;89.50;;;;;;4977184;28;20049;-73
2022/06/18 04:33:56;;;;;;;146.27;133.57;;;19.90;90.10;;;;;;4993106;28;20058;-72
2022/06/18 04:36:34;;;;;;;145.75;133.25;;;20.00;90.40;;;;;;4976734;28;20058;-72
2022/06/18 04:39:06;;;;;;;145.98;133.52;;;20.00;90.60;;;;;;4992957;28;20081;-72
2022/06/18 04:41:44;;;;;;;141.15;128.98;;;20.00;90.70;;;;;;4992811;28;20058;-72
2022/06/18 04:44:15;;;;;;;147.90;135.35;;;19.90;90.80;;;;;;4992635;28;20046;-72
2022/06/18 04:46:49;;;;;;;145.50;133.07;;;20.00;91.20;;;;;;4976253;28;20057;-72
2022/06/18 04:49:18;;;;;;;140.48;128.95;;;20.00;91.30;;;;;;4992894;28;20054;-72
2022/06/18 04:51:47;;;;;;;144.65;132.05;;;20.00;91.30;;;;;;5011769;28;20591;-71
2022/06/18 04:54:17;;;;;;;145.38;133.27;;;20.00;91.50;;;;;;5007852;28;20047;-72
2022/06/18 04:56:44;;;;;;;145.93;133.60;;;20.00;91.70;;;;;;4993641;28;20081;-73
2022/06/18 04:59:13;;;;;;;148.52;135.63;;;20.00;91.70;;;;;;4992910;28;20058;-72
2022/06/18 05:02:01;;;;;;;149.05;136.07;;;20.00;91.90;;;;;;4993478;28;20492;-72
2022/06/18 05:04:51;;;;;;;145.38;132.05;;;20.00;91.90;;;;;;4993481;28;20129;-72
2022/06/18 05:07:54;;;;;;;146.50;133.35;;;20.00;91.90;;;;;;5010241;28;20050;-71
2022/06/18 05:10:37;;;;;;;143.13;130.50;;;20.10;92.00;;;;;;4993267;28;20150;-72
2022/06/18 05:13:14;;;;;;;142.73;130.43;;;20.10;92.00;;;;;;5009296;28;20058;-72
2022/06/18 05:15:47;;;;;;;146.60;133.77;;;20.10;92.20;;;;;;5011110;28;20058;-72
2022/06/18 05:18:17;;;;;;;146.55;134.13;;;20.10;92.20;;;;;;4994505;28;20050;-72
2022/06/18 05:20:52;;;;;;;148.00;134.88;;;20.10;92.40;;;;;;5009713;28;20050;-72
2022/06/18 05:23:22;;;;;;;147.00;133.80;;;20.10;92.50;;;;;;4995194;28;20062;-71
2022/06/18 05:25:53;;;;;;;147.50;134.43;;;20.10;92.60;;;;;;4994855;28;20137;-72
2022/06/18 05:28:20;;;;;;;147.82;134.82;;;20.10;92.70;;;;;;5010751;28;20057;-72
2022/06/18 05:30:47;;;;;;;144.35;131.82;;;20.10;92.70;;;;;;5010166;28;20066;-72
2022/06/18 05:33:15;;;;;;;148.88;135.65;;;20.10;92.70;;;;;;4997578;28;20047;-71
2022/06/18 05:35:46;;;;;;;144.80;132.00;;;20.10;92.80;;;;;;5000660;28;20519;-72
2022/06/18 05:38:18;;;;;;;146.55;133.30;;;20.10;92.80;;;;;;4999528;28;20106;-71
2022/06/18 05:40:46;;;;;;;142.93;130.48;;;20.10;92.90;;;;;;4999603;28;20062;-72
2022/06/18 05:43:14;;;;;;;147.38;134.40;;;20.10;92.90;;;;;;5000987;28;20114;-72
2022/06/18 05:45:43;;;;;;;146.70;133.88;;;20.20;93.00;;;;;;5013830;28;20055;-72
2022/06/18 05:48:11;;;;;;;148.70;135.75;;;20.20;92.90;;;;;;5008296;28;20485;-72
2022/06/18 05:50:39;;;;;;;147.35;134.20;;;20.20;92.80;;;;;;4990937;28;20042;-72
2022/06/18 05:53:06;;;;;;;147.07;134.13;;;20.20;92.90;;;;;;5006498;28;20126;-72
2022/06/18 05:55:51;;;;;;;146.25;133.52;;;20.10;93.10;;;;;;4987677;28;20050;-73
2022/06/18 05:58:24;;;;;;;147.82;134.50;;;20.10;93.20;;;;;;5003820;28;20053;-73
2022/06/18 06:00:53;;;;;;;150.75;137.40;;;20.20;93.10;;;;;;5004054;28;20058;-73
2022/06/18 06:03:21;;;;;;;146.75;133.63;;;20.20;93.10;;;;;;5003925;28;20050;-73
2022/06/18 06:05:50;;;;;;;148.85;136.15;;;20.20;93.00;;;;;;4987965;28;20073;-72
2022/06/18 06:08:17;;;;;;;149.65;136.45;;;20.20;93.20;;;;;;4993175;28;20429;-72
2022/06/18 06:13:30;;;;;;;146.48;133.40;;;20.20;93.20;;;;;;5011616;28;20133;-72
2022/06/18 06:15:58;;;;;;;149.68;136.20;;;20.30;92.90;;;;;;4997762;28;20136;-71
2022/06/18 06:18:26;;;;;;;147.25;133.88;;;20.40;92.90;;;;;;5011249;28;20056;-72
2022/06/18 06:20:55;;;;;;;147.43;134.40;;;20.40;92.80;;;;;;5014662;28;20042;-72
2022/06/18 06:23:22;;;;;;;148.15;134.98;;;20.40;92.90;;;;;;5005849;28;20078;-72
2022/06/18 06:25:50;;;;;;;149.35;136.20;;;20.40;92.80;;;;;;5008458;28;20046;-72
2022/06/18 06:28:19;;;;;;;148.13;135.30;;;20.40;92.80;;;;;;5010889;28;20058;-72
2022/06/18 06:30:48;;;;;;;151.90;138.65;;;20.50;92.50;;;;;;5013194;28;20086;-73
2022/06/18 06:33:15;;;;;;;151.15;137.90;;;20.50;92.30;;;;;;5013019;28;20054;-72
2022/06/18 06:35:43;;;;;;;151.88;138.43;;;20.50;92.30;;;;;;5003513;28;20145;-72
2022/06/18 06:38:10;;;;;;;150.93;137.70;;;20.60;92.10;;;;;;4999041;28;20057;-72
2022/06/18 06:40:37;;;;;;;149.15;136.38;;;20.60;92.00;;;;;;5014004;28;20054;-72
2022/06/18 06:43:07;;;;;;;150.15;137.07;;;20.60;91.90;;;;;;5014064;28;20057;-72
2022/06/18 06:45:35;;;;;;;155.30;142.00;;;20.70;91.80;;;;;;5013573;28;20054;-72
2022/06/18 06:48:04;;;;;;;149.43;136.18;;;20.70;91.70;;;;;;4995176;28;20061;-72
2022/06/18 06:50:32;;;;;;;149.45;136.80;;;20.70;91.50;;;;;;4994147;28;20488;-72
2022/06/18 06:52:59;;;;;;;146.75;133.88;;;20.70;91.40;;;;;;4995782;28;20131;-72
2022/06/18 06:58:13;;;;;;;146.57;133.48;;;20.80;91.60;;;;;;4994898;28;20996;-72
2022/06/18 07:00:43;;;;;;;149.43;136.57;;;20.80;91.60;;;;;;4994541;28;20822;-72
2022/06/18 07:03:12;;;;;;;143.75;131.10;;;20.80;91.70;;;;;;4994257;28;20130;-72
2022/06/18 07:05:40;;;;;;;147.25;134.48;;;20.80;91.70;;;;;;4997334;28;20077;-72
2022/06/18 07:08:07;;;;;;;148.05;135.73;;;20.90;91.40;;;;;;4991547;28;20057;-72
2022/06/18 07:10:35;;;;;;;144.45;132.25;;;20.90;91.30;;;;;;4992053;28;20050;-73
2022/06/18 07:13:02;;;;;;;143.63;131.23;;;20.90;91.30;;;;;;4994910;28;20054;-73
2022/06/18 07:15:29;;;;;;;144.13;131.57;;;21.00;91.20;;;;;;4994871;28;20059;-72
2022/06/18 07:17:56;;;;;;;142.70;130.52;;;21.00;91.00;;;;;;4995170;28;20145;-72
2022/06/18 07:20:24;;;;;;;144.75;132.63;;;21.10;91.00;;;;;;4993386;28;20047;-72
2022/06/18 07:22:54;;;;;;;142.38;130.43;;;21.10;90.90;;;;;;5012254;28;20085;-72
2022/06/18 07:25:21;;;;;;;141.70;129.50;;;21.10;90.90;;;;;;5014549;28;20051;-73
2022/06/18 07:27:52;;;;;;;142.40;130.15;;;21.20;90.80;;;;;;5014165;28;20050;-73
2022/06/18 07:30:20;;;;;;;140.85;128.73;;;21.20;91.00;;;;;;5011808;28;20055;-73
2022/06/18 07:32:49;;;;;;;142.18;130.23;;;21.30;90.90;;;;;;5014214;28;20065;-73
2022/06/18 07:35:20;;;;;;;143.38;131.52;;;21.30;90.70;;;;;;5010562;28;20420;-73
2022/06/18 07:37:49;;;;;;;140.07;128.27;;;21.30;90.70;;;;;;5013984;28;20149;-73
2022/06/18 07:40:16;;;;;;;140.98;128.88;;;21.40;90.80;;;;;;5010012;28;20046;-73
2022/06/18 07:42:46;;;;;;;142.20;130.48;;;21.40;90.70;;;;;;5013053;28;20063;-72
2022/06/18 07:45:18;;;;;;;141.65;129.93;;;21.50;90.60;;;;;;5013171;28;20054;-73
2022/06/18 07:47:45;;;;;;;144.40;132.77;;;21.50;90.40;;;;;;5012158;28;20964;-73
2022/06/18 07:50:12;;;;;;;145.40;133.20;;;21.60;90.40;;;;;;5012537;28;20542;-73
2022/06/18 07:52:40;;;;;;;143.93;132.32;;;21.60;90.20;;;;;;5011185;28;20603;-73
2022/06/18 07:55:14;;;;;;;148.57;136.70;;;21.70;90.40;;;;;;5009851;28;20050;-73
2022/06/18 07:57:42;;;;;;;143.32;131.45;;;21.70;90.10;;;;;;5013289;28;20062;-73
2022/06/18 08:00:11;;;;;;;145.23;133.05;;;21.80;90.30;;;;;;5012798;28;20574;-73
2022/06/18 08:02:40;;;;;;;140.90;129.45;;;21.80;90.60;;;;;;5012540;28;20043;-73
2022/06/18 08:05:08;;;;;;;146.75;135.23;;;21.80;90.70;;;;;;5026775;28;20046;-73
2022/06/18 08:07:35;;;;;;;143.25;131.13;;;21.90;90.70;;;;;;5013837;28;20058;-73
2022/06/18 08:10:02;;;;;;;143.73;132.20;;;21.90;90.80;;;;;;5011968;28;20578;-73
2022/06/18 08:12:31;;;;;;;144.40;132.55;;;22.00;90.50;;;;;;5013925;28;20058;-73
2022/06/18 08:14:59;;;;;;;144.23;132.88;;;22.00;90.10;;;;;;5013426;28;20065;-73
2022/06/18 08:17:26;;;;;;;144.98;133.77;;;22.10;90.00;;;;;;4995595;28;20050;-73
2022/06/18 08:19:52;;;;;;;143.65;132.45;;;22.10;89.70;;;;;;5010552;28;20054;-73
2022/06/18 08:22:21;;;;;;;144.38;132.68;;;22.10;89.30;;;;;;5013872;28;20058;-73
2022/06/18 08:24:49;;;;;;;144.07;132.38;;;22.20;88.90;;;;;;5013624;28;20054;-73
2022/06/18 08:27:16;;;;;;;143.25;131.77;;;22.20;89.30;;;;;;5011692;28;20054;-75
2022/06/18 08:29:44;;;;;;;151.43;139.40;;;22.30;89.60;;;;;;5009427;28;20575;-73
2022/06/18 08:32:11;;;;;;;143.50;132.18;;;22.30;89.50;;;;;;5011850;28;20046;-73
2022/06/18 08:34:38;;;;;;;142.98;131.23;;;22.40;89.60;;;;;;5013312;28;20608;-73
2022/06/18 08:37:07;;;;;;;146.63;134.68;;;22.40;89.50;;;;;;5013291;28;20145;-73
2022/06/18 08:39:35;;;;;;;142.93;131.45;;;22.50;88.60;;;;;;5013045;28;20121;-73
2022/06/18 08:42:10;;;;;;;144.70;132.80;;;22.50;88.20;;;;;;5011989;28;20053;-73
2022/06/18 08:45:07;;;;;;;144.02;132.63;;;22.60;88.40;;;;;;5009588;28;20042;-73
2022/06/18 08:47:51;;;;;;;142.73;131.45;;;22.60;87.30;;;;;;5010792;28;20042;-73
2022/06/18 08:50:40;;;;;;;142.85;131.55;;;22.60;87.60;;;;;;5013123;28;20065;-73
2022/06/18 08:53:22;;;;;;;143.95;132.50;;;22.70;87.90;;;;;;5012537;28;20148;-73
2022/06/18 08:55:56;;;;;;;141.10;130.10;;;22.70;87.90;;;;;;5004468;28;20089;-73
2022/06/18 08:58:31;;;;;;;141.93;130.23;;;22.70;87.70;;;;;;4999671;28;20169;-73
2022/06/18 09:01:05;;;;;;;141.93;130.77;;;22.80;87.20;;;;;;5018259;28;20137;-73
2022/06/18 09:03:49;;;;;;;142.40;131.25;;;22.80;87.10;;;;;;5011678;28;20505;-73
2022/06/18 09:06:28;;;;;;;143.23;131.73;;;22.80;86.90;;;;;;4997961;28;20051;-73
2022/06/18 09:09:04;;;;;;;141.93;130.82;;;22.90;86.60;;;;;;4994164;28;20497;-73
2022/06/18 09:11:51;;;;;;;141.48;130.20;;;22.90;86.40;;;;;;5009451;28;20129;-73
2022/06/18 09:14:25;;;;;;;141.15;129.85;;;23.00;86.10;;;;;;5009761;28;20065;-73
2022/06/18 09:16:58;;;;;;;143.35;131.68;;;23.00;86.00;;;;;;5013150;28;20145;-73
2022/06/18 09:19:28;;;;;;;144.97;133.67;;;23.10;86.20;;;;;;5012839;28;20054;-73
2022/06/18 09:21:56;;;;;;;140.35;129.30;;;23.10;86.30;;;;;;5011085;28;20188;-72
2022/06/18 09:24:28;;;;;;;138.18;127.35;;;23.10;86.30;;;;;;5013045;28;20330;-73
2022/06/18 09:27:03;;;;;;;141.43;130.27;;;23.20;85.50;;;;;;5012979;28;20058;-73
2022/06/18 09:29:35;;;;;;;137.88;127.18;;;23.30;85.00;;;;;;5012188;28;20057;-72
2022/06/18 09:32:10;;;;;;;143.88;132.82;;;23.30;85.40;;;;;;5011878;28;20054;-72
2022/06/18 09:34:43;;;;;;;146.73;135.43;;;23.40;86.50;;;;;;5011105;28;20051;-73
2022/06/18 09:37:16;;;;;;;148.88;136.95;;;23.40;86.40;;;;;;5010505;28;20051;-73
2022/06/18 09:39:48;;;;;;;144.38;133.10;;;23.50;86.30;;;;;;5013265;28;20481;-72
2022/06/18 09:42:21;;;;;;;144.63;133.63;;;23.50;86.00;;;;;;4998022;28;20075;-73
2022/06/18 09:44:54;;;;;;;143.50;132.50;;;23.50;86.40;;;;;;4993301;28;20133;-73
2022/06/18 09:47:27;;;;;;;145.48;134.13;;;23.60;86.80;;;;;;4991527;28;20104;-73
2022/06/18 09:49:54;;;;;;;146.38;135.07;;;23.60;87.60;;;;;;5001851;28;20064;-73
2022/06/18 09:52:32;;;;;;;147.25;136.25;;;23.70;87.70;;;;;;5012474;28;20054;-73
2022/06/18 09:55:04;;;;;;;149.52;138.02;;;23.70;86.90;;;;;;5010141;28;20050;-73
2022/06/18 09:57:36;;;;;;;148.02;136.48;;;23.80;86.50;;;;;;5013763;28;20085;-73
2022/06/18 10:00:06;;;;;;;147.88;136.57;;;23.90;86.50;;;;;;5008755;28;20164;-73
2022/06/18 10:02:43;;;;;;;145.20;134.20;;;23.90;86.60;;;;;;5009360;28;20903;-73
2022/06/18 10:08:04;;;;;;;;;;;24.00;85.40;;;;;;5010313;28;20136;-73
2022/06/18 10:10:34;;;;;;;144.00;132.48;;;24.00;85.30;;;;;;5010745;28;19947;-72
2022/06/18 10:13:01;;;;;;;144.02;133.05;;;24.00;86.90;;;;;;5010746;28;20050;-72
2022/06/18 10:15:29;;;;;;;145.70;134.65;;;24.10;87.10;;;;;;5009257;28;20534;-73
2022/06/18 10:18:26;;;;;;;145.77;134.75;;;24.20;86.90;;;;;;4989626;28;20604;-73
2022/06/18 10:21:00;;;;;;;145.20;134.00;;;24.20;86.60;;;;;;5002175;28;20076;-72
2022/06/18 10:23:39;;;;;;;144.10;133.02;;;24.30;86.40;;;;;;5012391;28;20265;-72
2022/06/18 10:26:16;;;;;;;148.18;136.07;;;24.40;86.10;;;;;;5010553;28;20054;-73
2022/06/18 10:28:53;;;;;;;145.52;134.05;;;24.40;85.30;;;;;;5011617;28;20054;-72
2022/06/18 10:31:32;;;;;;;145.90;134.98;;;24.50;84.60;;;;;;4993991;28;20516;-72
2022/06/18 10:34:10;;;;;;;149.55;138.25;;;24.60;84.30;;;;;;5010279;28;20047;-73
2022/06/18 10:36:46;;;;;;;145.70;134.95;;;24.60;84.10;;;;;;5011883;28;20061;-73
2022/06/18 10:39:21;;;;;;;147.30;136.45;;;24.60;83.90;;;;;;5010600;28;20508;-72
2022/06/18 10:42:02;;;;;;;145.32;134.43;;;24.70;84.90;;;;;;4994622;28;20046;-73
2022/06/18 10:44:46;;;;;;;147.43;136.45;;;24.70;85.20;;;;;;5015223;28;20101;-73
2022/06/18 10:47:17;;;;;;;147.20;136.30;;;24.70;84.10;;;;;;5015154;28;20050;-73
2022/06/18 10:49:46;;;;;;;147.52;136.63;;;24.80;84.00;;;;;;5006292;28;20051;-73
2022/06/18 10:52:22;;;;;;;147.38;136.68;;;24.80;84.80;;;;;;5010324;28;20058;-72
2022/06/18 10:54:49;;;;;;;148.00;137.20;;;24.90;85.20;;;;;;4994330;28;20059;-73
2022/06/18 10:57:27;;;;;;;150.73;139.52;;;24.90;85.30;;;;;;4994595;28;20051;-73
2022/06/18 10:59:54;;;;;;;147.43;136.68;;;25.00;84.50;;;;;;5011310;28;20522;-73
2022/06/18 11:02:28;;;;;;;149.40;134.45;;;25.00;84.00;;;;;;5013676;28;20129;-74
2022/06/18 11:04:57;;;;;;;142.70;131.85;;;25.10;84.00;;;;;;4997252;28;20626;-74
2022/06/18 11:07:28;;;;;;;146.98;136.27;;;25.20;83.80;;;;;;5012534;28;20534;-74
2022/06/18 11:09:58;;;;;;;140.98;130.32;;;25.30;83.90;;;;;;5012910;28;20567;-75
2022/06/18 11:12:28;;;;;;;144.88;133.95;;;25.40;83.30;;;;;;5012093;28;20042;-74
2022/06/18 11:14:56;;;;;;;144.48;133.50;;;25.40;83.10;;;;;;5012972;28;20141;-75
2022/06/18 11:17:27;;;;;;;149.98;138.98;;;25.50;82.30;;;;;;5011707;28;20544;-74
2022/06/18 11:19:54;;;;;;;150.32;139.32;;;25.50;81.80;;;;;;5008613;28;20058;-74
2022/06/18 11:22:25;;;;;;;149.63;138.85;;;25.50;80.70;;;;;;5012038;28;20161;-74
2022/06/18 11:24:56;;;;;;;148.25;137.27;;;25.50;81.10;;;;;;5012718;28;20407;-74
2022/06/18 11:27:25;;;;;;;149.05;138.45;;;25.50;81.50;;;;;;5012271;28;20094;-74
2022/06/18 11:29:54;;;;;;;150.40;139.45;;;25.50;81.70;;;;;;5002616;28;20098;-74
2022/06/18 11:32:24;;;;;;;149.02;137.75;;;25.60;81.50;;;;;;5002515;28;20521;-74
2022/06/18 11:34:56;;;;;;;150.02;138.32;;;25.70;81.20;;;;;;5012762;28;20505;-74
2022/06/18 11:37:26;;;;;;;149.55;138.82;;;25.70;81.90;;;;;;5010070;28;20544;-74
2022/06/18 11:39:57;;;;;;;150.02;139.05;;;25.80;82.10;;;;;;5005446;28;20761;-74
2022/06/18 11:42:30;;;;;;;147.23;136.73;;;25.90;81.20;;;;;;5001333;28;20583;-74
2022/06/18 11:45:06;;;;;;;145.70;135.25;;;25.90;80.60;;;;;;5003412;28;20061;-74
2022/06/18 11:47:39;;;;;;;148.80;137.90;;;26.00;81.70;;;;;;5003017;28;20050;-74
2022/06/18 11:50:15;;;;;;;151.60;140.50;;;26.10;81.40;;;;;;5004434;28;20137;-74
2022/06/18 11:52:47;;;;;;;150.93;140.02;;;26.20;80.30;;;;;;5003173;28;20058;-74
2022/06/18 11:55:23;;;;;;;147.35;136.50;;;26.30;80.70;;;;;;5003955;28;20050;-74
2022/06/18 11:57:56;;;;;;;150.02;139.52;;;26.40;81.30;;;;;;5002831;28;20051;-74
2022/06/18 12:00:27;;;;;;;149.25;138.32;;;26.40;81.50;;;;;;5003253;28;20136;-74
2022/06/18 12:03:02;;;;;;;149.15;138.52;;;26.50;79.20;;;;;;5002173;28;20075;-74
2022/06/18 12:05:35;;;;;;;150.25;139.77;;;26.60;78.60;;;;;;5002389;28;20069;-74
2022/06/18 12:08:04;;;;;;;151.10;140.18;;;26.60;79.70;;;;;;5004463;28;20186;-75
2022/06/18 12:10:45;;;;;;;151.13;140.63;;;26.70;80.70;;;;;;5003039;28;20050;-75
2022/06/18 12:13:25;;;;;;;150.68;140.18;;;26.80;80.00;;;;;;5006213;28;20197;-74
2022/06/18 12:16:02;;;;;;;152.65;142.00;;;26.80;80.10;;;;;;5005137;28;20158;-74
2022/06/18 12:18:36;;;;;;;149.25;138.65;;;27.00;79.80;;;;;;5017950;28;20506;-74
2022/06/18 12:21:14;;;;;;;154.45;143.65;;;27.00;81.20;;;;;;5000775;28;20145;-74
2022/06/18 12:23:51;;;;;;;150.73;139.93;;;27.10;80.30;;;;;;5002013;28;20085;-74
2022/06/18 12:26:23;;;;;;;151.95;141.45;;;27.20;79.50;;;;;;5004009;28;20054;-74
2022/06/18 12:29:18;;;;;;;145.38;134.70;;;27.20;77.90;;;;;;5004434;28;20085;-74
2022/06/18 12:31:50;;;;;;;145.95;135.25;;;27.30;77.80;;;;;;4989419;28;20065;-74
2022/06/18 12:34:27;;;;;;;145.82;135.27;;;27.30;76.50;;;;;;5003378;28;20081;-74
2022/06/18 12:36:59;;;;;;;147.85;137.38;;;27.30;77.30;;;;;;4991331;28;20046;-74
2022/06/18 12:39:34;;;;;;;151.35;140.75;;;27.40;77.60;;;;;;5000514;28;20565;-74
2022/06/18 12:42:11;;;;;;;147.27;136.88;;;27.40;77.70;;;;;;5002691;28;20052;-74
2022/06/18 12:44:43;;;;;;;146.60;136.23;;;27.50;77.10;;;;;;4986938;28;20505;-74